sensor_id;sensor_type;location;lat;lon;timestamp;temperature;humidity
61979;DHT22;47938;48.176;16.414;2023-01-15T00:01:39;6.20;75.40
61979;DHT22;47938;48.176;16.414;2023-01-15T00:04:06;6.30;74.60
61979;DHT22;47938;48.176;16.414;2023-01-15T00:06:35;6.40;73.70
61979;DHT22;47938;48.176;16.414;2023-01-15T00:09:02;6.40;73.50
61979;DHT22;47938;48.176;16.414;2023-01-15T00:11:27;6.50;73.10
61979;DHT22;47938;48.176;16.414;2023-01-15T00:13:54;6.60;72.30
61979;DHT22;47938;48.176;16.414;2023-01-15T00:16:22;6.60;72.20
61979;DHT22;47938;48.176;16.414;2023-01-15T00:18:56;6.60;72.50
61979;DHT22;47938;48.176;16.414;2023-01-15T00:21:22;6.70;72.40
61979;DHT22;47938;48.176;16.414;2023-01-15T00:23:48;6.70;72.50
61979;DHT22;47938;48.176;16.414;2023-01-15T00:26:15;6.70;72.70
61979;DHT22;47938;48.176;16.414;2023-01-15T00:28:41;6.60;73.30
61979;DHT22;47938;48.176;16.414;2023-01-15T00:31:07;6.70;73.60
61979;DHT22;47938;48.176;16.414;2023-01-15T00:33:32;6.70;73.70
61979;DHT22;47938;48.176;16.414;2023-01-15T00:35:58;6.60;73.80
61979;DHT22;47938;48.176;16.414;2023-01-15T00:38:24;6.70;74.20
61979;DHT22;47938;48.176;16.414;2023-01-15T00:40:49;6.60;74.70
61979;DHT22;47938;48.176;16.414;2023-01-15T00:43:15;6.60;74.80
61979;DHT22;47938;48.176;16.414;2023-01-15T00:45:40;6.60;75.00
61979;DHT22;47938;48.176;16.414;2023-01-15T00:48:06;6.60;76.40
61979;DHT22;47938;48.176;16.414;2023-01-15T00:50:31;6.50;75.90
61979;DHT22;47938;48.176;16.414;2023-01-15T00:52:57;6.60;75.50
61979;DHT22;47938;48.176;16.414;2023-01-15T00:55:23;6.50;75.90
61979;DHT22;47938;48.176;16.414;2023-01-15T00:57:48;6.50;76.10
61979;DHT22;47938;48.176;16.414;2023-01-15T01:00:14;6.50;76.10
61979;DHT22;47938;48.176;16.414;2023-01-15T01:02:40;6.50;76.50
61979;DHT22;47938;48.176;16.414;2023-01-15T01:05:06;6.40;76.90
61979;DHT22;47938;48.176;16.414;2023-01-15T01:07:31;6.50;77.10
61979;DHT22;47938;48.176;16.414;2023-01-15T01:09:57;6.50;77.30
61979;DHT22;47938;48.176;16.414;2023-01-15T01:12:22;6.50;77.20
61979;DHT22;47938;48.176;16.414;2023-01-15T01:14:48;6.40;78.30
61979;DHT22;47938;48.176;16.414;2023-01-15T01:17:14;6.40;78.30
61979;DHT22;47938;48.176;16.414;2023-01-15T01:19:39;6.20;79.30
61979;DHT22;47938;48.176;16.414;2023-01-15T01:22:05;6.20;80.00
61979;DHT22;47938;48.176;16.414;2023-01-15T01:24:30;6.20;80.40
61979;DHT22;47938;48.176;16.414;2023-01-15T01:26:56;6.10;81.80
61979;DHT22;47938;48.176;16.414;2023-01-15T01:29:22;6.00;82.90
61979;DHT22;47938;48.176;16.414;2023-01-15T01:31:48;6.10;83.20
61979;DHT22;47938;48.176;16.414;2023-01-15T01:34:14;6.00;83.80
61979;DHT22;47938;48.176;16.414;2023-01-15T01:36:41;6.10;83.80
61979;DHT22;47938;48.176;16.414;2023-01-15T01:39:14;6.20;83.00
61979;DHT22;47938;48.176;16.414;2023-01-15T01:41:40;6.10;83.40
61979;DHT22;47938;48.176;16.414;2023-01-15T01:46:59;6.30;82.50
61979;DHT22;47938;48.176;16.414;2023-01-15T01:49:25;6.30;82.30
61979;DHT22;47938;48.176;16.414;2023-01-15T01:52:20;6.30;82.70
61979;DHT22;47938;48.176;16.414;2023-01-15T01:54:49;6.30;82.60
61979;DHT22;47938;48.176;16.414;2023-01-15T01:57:15;6.30;82.70
61979;DHT22;47938;48.176;16.414;2023-01-15T01:59:43;6.30;83.20
61979;DHT22;47938;48.176;16.414;2023-01-15T02:02:08;6.30;83.70
61979;DHT22;47938;48.176;16.414;2023-01-15T02:04:35;6.30;83.50
61979;DHT22;47938;48.176;16.414;2023-01-15T02:07:02;6.30;83.20
61979;DHT22;47938;48.176;16.414;2023-01-15T02:09:28;6.30;83.60
61979;DHT22;47938;48.176;16.414;2023-01-15T02:11:57;6.30;84.00
61979;DHT22;47938;48.176;16.414;2023-01-15T02:14:33;6.30;84.00
61979;DHT22;47938;48.176;16.414;2023-01-15T02:17:07;6.30;84.00
61979;DHT22;47938;48.176;16.414;2023-01-15T02:28:09;6.30;85.40
61979;DHT22;47938;48.176;16.414;2023-01-15T02:30:41;6.30;85.00
61979;DHT22;47938;48.176;16.414;2023-01-15T02:33:21;6.30;85.00
61979;DHT22;47938;48.176;16.414;2023-01-15T02:35:54;6.40;84.50
61979;DHT22;47938;48.176;16.414;2023-01-15T02:38:22;6.40;84.50
61979;DHT22;47938;48.176;16.414;2023-01-15T02:40:52;6.30;85.10
61979;DHT22;47938;48.176;16.414;2023-01-15T02:43:20;6.30;85.70
61979;DHT22;47938;48.176;16.414;2023-01-15T02:45:49;6.30;85.60
61979;DHT22;47938;48.176;16.414;2023-01-15T02:48:17;6.30;85.90
61979;DHT22;47938;48.176;16.414;2023-01-15T02:50:56;6.20;86.30
61979;DHT22;47938;48.176;16.414;2023-01-15T02:53:28;6.20;86.60
61979;DHT22;47938;48.176;16.414;2023-01-15T02:56:01;6.30;86.90
61979;DHT22;47938;48.176;16.414;2023-01-15T02:58:34;6.30;86.70
61979;DHT22;47938;48.176;16.414;2023-01-15T03:01:06;6.20;87.40
61979;DHT22;47938;48.176;16.414;2023-01-15T03:03:47;6.20;87.10
61979;DHT22;47938;48.176;16.414;2023-01-15T03:08:46;6.20;87.80
61979;DHT22;47938;48.176;16.414;2023-01-15T03:11:14;6.20;87.20
61979;DHT22;47938;48.176;16.414;2023-01-15T03:13:52;6.20;87.70
61979;DHT22;47938;48.176;16.414;2023-01-15T03:18:55;6.20;88.10
61979;DHT22;47938;48.176;16.414;2023-01-15T03:21:29;6.20;87.80
61979;DHT22;47938;48.176;16.414;2023-01-15T03:24:00;6.20;87.90
61979;DHT22;47938;48.176;16.414;2023-01-15T03:26:27;6.20;88.30
61979;DHT22;47938;48.176;16.414;2023-01-15T03:28:53;6.10;88.40
61979;DHT22;47938;48.176;16.414;2023-01-15T03:31:19;6.00;89.40
61979;DHT22;47938;48.176;16.414;2023-01-15T03:33:45;6.10;89.30
61979;DHT22;47938;48.176;16.414;2023-01-15T03:36:11;6.10;89.20
61979;DHT22;47938;48.176;16.414;2023-01-15T03:38:38;6.10;89.40
61979;DHT22;47938;48.176;16.414;2023-01-15T03:41:13;6.10;88.60
61979;DHT22;47938;48.176;16.414;2023-01-15T03:53:13;5.90;90.00
61979;DHT22;47938;48.176;16.414;2023-01-15T03:56:09;5.90;89.30
61979;DHT22;47938;48.176;16.414;2023-01-15T03:58:44;5.90;90.40
61979;DHT22;47938;48.176;16.414;2023-01-15T04:01:17;5.80;91.00
61979;DHT22;47938;48.176;16.414;2023-01-15T04:03:45;5.80;90.60
61979;DHT22;47938;48.176;16.414;2023-01-15T04:06:12;5.80;91.00
61979;DHT22;47938;48.176;16.414;2023-01-15T04:08:40;5.70;91.30
61979;DHT22;47938;48.176;16.414;2023-01-15T04:11:06;5.60;91.50
61979;DHT22;47938;48.176;16.414;2023-01-15T04:13:32;5.60;91.80
61979;DHT22;47938;48.176;16.414;2023-01-15T04:15:58;5.60;92.30
61979;DHT22;47938;48.176;16.414;2023-01-15T04:18:24;5.60;92.80
61979;DHT22;47938;48.176;16.414;2023-01-15T04:20:50;5.60;92.10
61979;DHT22;47938;48.176;16.414;2023-01-15T04:23:16;5.50;92.60
61979;DHT22;47938;48.176;16.414;2023-01-15T04:25:42;5.40;93.00
61979;DHT22;47938;48.176;16.414;2023-01-15T04:28:08;5.40;93.50
61979;DHT22;47938;48.176;16.414;2023-01-15T04:30:34;5.40;93.70
61979;DHT22;47938;48.176;16.414;2023-01-15T04:33:00;5.40;93.80
61979;DHT22;47938;48.176;16.414;2023-01-15T04:35:26;5.40;93.90
61979;DHT22;47938;48.176;16.414;2023-01-15T04:37:58;5.30;93.60
61979;DHT22;47938;48.176;16.414;2023-01-15T04:40:25;5.40;94.00
61979;DHT22;47938;48.176;16.414;2023-01-15T04:42:51;5.40;94.00
61979;DHT22;47938;48.176;16.414;2023-01-15T04:45:16;5.40;93.80
61979;DHT22;47938;48.176;16.414;2023-01-15T04:47:42;5.40;93.90
61979;DHT22;47938;48.176;16.414;2023-01-15T04:50:10;5.40;94.00
61979;DHT22;47938;48.176;16.414;2023-01-15T04:52:36;5.40;93.50
61979;DHT22;47938;48.176;16.414;2023-01-15T04:55:03;5.40;94.20
61979;DHT22;47938;48.176;16.414;2023-01-15T04:57:28;5.40;94.00
61979;DHT22;47938;48.176;16.414;2023-01-15T04:59:54;5.40;93.80
61979;DHT22;47938;48.176;16.414;2023-01-15T05:02:20;5.40;93.90
61979;DHT22;47938;48.176;16.414;2023-01-15T05:04:46;5.40;94.00
61979;DHT22;47938;48.176;16.414;2023-01-15T05:07:11;5.40;94.10
61979;DHT22;47938;48.176;16.414;2023-01-15T05:09:37;5.40;94.00
61979;DHT22;47938;48.176;16.414;2023-01-15T05:12:03;5.50;93.20
61979;DHT22;47938;48.176;16.414;2023-01-15T05:14:29;5.70;92.20
61979;DHT22;47938;48.176;16.414;2023-01-15T05:16:55;5.60;91.40
61979;DHT22;47938;48.176;16.414;2023-01-15T05:19:20;5.60;91.70
61979;DHT22;47938;48.176;16.414;2023-01-15T05:21:46;5.60;92.90
61979;DHT22;47938;48.176;16.414;2023-01-15T05:24:14;5.50;92.70
61979;DHT22;47938;48.176;16.414;2023-01-15T05:26:40;5.70;91.90
61979;DHT22;47938;48.176;16.414;2023-01-15T05:29:06;5.70;90.70
61979;DHT22;47938;48.176;16.414;2023-01-15T05:31:32;5.80;90.10
61979;DHT22;47938;48.176;16.414;2023-01-15T05:33:59;5.80;89.50
61979;DHT22;47938;48.176;16.414;2023-01-15T05:36:27;5.80;89.70
61979;DHT22;47938;48.176;16.414;2023-01-15T05:38:54;5.80;88.50
61979;DHT22;47938;48.176;16.414;2023-01-15T05:41:21;5.80;89.00
61979;DHT22;47938;48.176;16.414;2023-01-15T05:43:47;5.80;89.10
61979;DHT22;47938;48.176;16.414;2023-01-15T05:46:12;5.80;89.20
61979;DHT22;47938;48.176;16.414;2023-01-15T05:48:38;5.80;88.70
61979;DHT22;47938;48.176;16.414;2023-01-15T05:51:03;5.80;89.20
61979;DHT22;47938;48.176;16.414;2023-01-15T05:53:29;5.80;88.40
61979;DHT22;47938;48.176;16.414;2023-01-15T05:55:55;5.80;89.30
61979;DHT22;47938;48.176;16.414;2023-01-15T05:58:20;5.80;86.80
61979;DHT22;47938;48.176;16.414;2023-01-15T06:00:46;5.80;87.70
61979;DHT22;47938;48.176;16.414;2023-01-15T06:03:11;5.70;89.10
61979;DHT22;47938;48.176;16.414;2023-01-15T06:05:37;5.70;87.50
61979;DHT22;47938;48.176;16.414;2023-01-15T06:08:03;5.80;87.20
61979;DHT22;47938;48.176;16.414;2023-01-15T06:10:28;5.80;85.30
61979;DHT22;47938;48.176;16.414;2023-01-15T06:12:54;5.80;85.70
61979;DHT22;47938;48.176;16.414;2023-01-15T06:15:20;5.80;85.00
61979;DHT22;47938;48.176;16.414;2023-01-15T06:17:48;5.70;85.20
61979;DHT22;47938;48.176;16.414;2023-01-15T06:20:14;5.70;86.10
61979;DHT22;47938;48.176;16.414;2023-01-15T06:22:40;5.70;85.40
61979;DHT22;47938;48.176;16.414;2023-01-15T06:25:05;5.60;86.30
61979;DHT22;47938;48.176;16.414;2023-01-15T06:27:31;5.60;86.80
61979;DHT22;47938;48.176;16.414;2023-01-15T06:29:57;5.70;86.20
61979;DHT22;47938;48.176;16.414;2023-01-15T06:32:22;5.70;85.80
61979;DHT22;47938;48.176;16.414;2023-01-15T06:34:48;5.70;85.40
61979;DHT22;47938;48.176;16.414;2023-01-15T06:37:14;5.70;84.80
61979;DHT22;47938;48.176;16.414;2023-01-15T06:39:40;5.70;85.20
61979;DHT22;47938;48.176;16.414;2023-01-15T06:42:05;5.70;84.10
61979;DHT22;47938;48.176;16.414;2023-01-15T06:44:31;5.80;84.70
61979;DHT22;47938;48.176;16.414;2023-01-15T06:46:56;5.80;84.00
61979;DHT22;47938;48.176;16.414;2023-01-15T06:49:22;5.80;83.20
61979;DHT22;47938;48.176;16.414;2023-01-15T06:51:48;5.70;83.30
61979;DHT22;47938;48.176;16.414;2023-01-15T06:54:13;5.60;84.40
61979;DHT22;47938;48.176;16.414;2023-01-15T06:56:39;5.60;86.00
61979;DHT22;47938;48.176;16.414;2023-01-15T06:59:04;5.60;85.00
61979;DHT22;47938;48.176;16.414;2023-01-15T07:01:30;5.60;84.00
61979;DHT22;47938;48.176;16.414;2023-01-15T07:03:56;5.60;84.70
61979;DHT22;47938;48.176;16.414;2023-01-15T07:06:21;5.60;84.50
61979;DHT22;47938;48.176;16.414;2023-01-15T07:08:47;5.60;83.50
61979;DHT22;47938;48.176;16.414;2023-01-15T07:11:13;5.60;83.50
61979;DHT22;47938;48.176;16.414;2023-01-15T07:13:38;5.50;84.40
61979;DHT22;47938;48.176;16.414;2023-01-15T07:16:04;5.50;84.80
61979;DHT22;47938;48.176;16.414;2023-01-15T07:18:31;5.50;84.60
61979;DHT22;47938;48.176;16.414;2023-01-15T07:20:58;5.50;84.70
61979;DHT22;47938;48.176;16.414;2023-01-15T07:23:25;5.50;85.40
61979;DHT22;47938;48.176;16.414;2023-01-15T07:25:52;5.50;86.30
61979;DHT22;47938;48.176;16.414;2023-01-15T07:28:19;5.60;86.50
61979;DHT22;47938;48.176;16.414;2023-01-15T07:30:45;5.50;86.20
61979;DHT22;47938;48.176;16.414;2023-01-15T07:33:10;5.50;89.40
61979;DHT22;47938;48.176;16.414;2023-01-15T07:35:36;5.50;89.00
61979;DHT22;47938;48.176;16.414;2023-01-15T07:38:02;5.50;89.60
61979;DHT22;47938;48.176;16.414;2023-01-15T07:40:27;5.40;90.50
61979;DHT22;47938;48.176;16.414;2023-01-15T07:42:53;5.50;91.10
61979;DHT22;47938;48.176;16.414;2023-01-15T07:45:19;5.40;91.30
61979;DHT22;47938;48.176;16.414;2023-01-15T07:47:44;5.40;92.50
61979;DHT22;47938;48.176;16.414;2023-01-15T07:50:22;5.30;92.70
61979;DHT22;47938;48.176;16.414;2023-01-15T07:52:48;5.30;93.10
61979;DHT22;47938;48.176;16.414;2023-01-15T07:55:14;5.20;93.80
61979;DHT22;47938;48.176;16.414;2023-01-15T07:57:40;5.20;95.10
61979;DHT22;47938;48.176;16.414;2023-01-15T08:00:13;5.20;96.40
61979;DHT22;47938;48.176;16.414;2023-01-15T08:02:40;5.30;95.20
61979;DHT22;47938;48.176;16.414;2023-01-15T08:05:07;5.30;95.50
61979;DHT22;47938;48.176;16.414;2023-01-15T08:07:37;5.30;96.20
61979;DHT22;47938;48.176;16.414;2023-01-15T08:10:03;5.20;96.50
61979;DHT22;47938;48.176;16.414;2023-01-15T08:12:29;5.20;97.20
61979;DHT22;47938;48.176;16.414;2023-01-15T08:14:55;5.30;97.80
61979;DHT22;47938;48.176;16.414;2023-01-15T08:17:20;5.30;97.30
61979;DHT22;47938;48.176;16.414;2023-01-15T08:19:46;5.30;97.30
61979;DHT22;47938;48.176;16.414;2023-01-15T08:22:12;5.40;98.60
61979;DHT22;47938;48.176;16.414;2023-01-15T08:24:37;5.60;99.90
61979;DHT22;47938;48.176;16.414;2023-01-15T08:27:03;5.50;99.90
61979;DHT22;47938;48.176;16.414;2023-01-15T08:29:29;5.60;97.60
61979;DHT22;47938;48.176;16.414;2023-01-15T08:31:55;5.60;98.10
61979;DHT22;47938;48.176;16.414;2023-01-15T08:34:20;5.60;98.40
61979;DHT22;47938;48.176;16.414;2023-01-15T08:36:46;5.60;98.10
61979;DHT22;47938;48.176;16.414;2023-01-15T08:39:11;5.60;97.50
61979;DHT22;47938;48.176;16.414;2023-01-15T08:41:37;5.60;99.90
61979;DHT22;47938;48.176;16.414;2023-01-15T08:44:03;5.60;98.10
61979;DHT22;47938;48.176;16.414;2023-01-15T08:46:28;5.60;98.40
61979;DHT22;47938;48.176;16.414;2023-01-15T08:48:54;5.60;98.50
61979;DHT22;47938;48.176;16.414;2023-01-15T08:51:19;5.70;98.30
61979;DHT22;47938;48.176;16.414;2023-01-15T08:53:45;5.70;98.90
61979;DHT22;47938;48.176;16.414;2023-01-15T08:56:16;5.70;96.70
61979;DHT22;47938;48.176;16.414;2023-01-15T08:58:42;5.70;97.40
61979;DHT22;47938;48.176;16.414;2023-01-15T09:01:09;5.60;98.60
61979;DHT22;47938;48.176;16.414;2023-01-15T09:03:36;5.70;99.90
61979;DHT22;47938;48.176;16.414;2023-01-15T09:06:02;5.80;99.60
61979;DHT22;47938;48.176;16.414;2023-01-15T09:08:29;5.80;97.70
61979;DHT22;47938;48.176;16.414;2023-01-15T09:10:58;5.90;96.50
61979;DHT22;47938;48.176;16.414;2023-01-15T09:13:25;5.80;97.00
61979;DHT22;47938;48.176;16.414;2023-01-15T09:15:51;5.80;96.40
61979;DHT22;47938;48.176;16.414;2023-01-15T09:18:16;5.80;96.70
61979;DHT22;47938;48.176;16.414;2023-01-15T09:20:42;5.90;96.50
61979;DHT22;47938;48.176;16.414;2023-01-15T09:23:08;5.90;96.20
61979;DHT22;47938;48.176;16.414;2023-01-15T09:25:33;5.90;95.90
61979;DHT22;47938;48.176;16.414;2023-01-15T09:27:59;5.90;96.00
61979;DHT22;47938;48.176;16.414;2023-01-15T09:30:24;5.90;95.10
61979;DHT22;47938;48.176;16.414;2023-01-15T09:32:50;5.90;95.90
61979;DHT22;47938;48.176;16.414;2023-01-15T09:35:15;5.90;96.60
61979;DHT22;47938;48.176;16.414;2023-01-15T09:37:41;5.90;97.50
61979;DHT22;47938;48.176;16.414;2023-01-15T09:40:10;6.10;99.90
61979;DHT22;47938;48.176;16.414;2023-01-15T09:42:54;6.10;97.10
61979;DHT22;47938;48.176;16.414;2023-01-15T09:45:49;6.00;99.30
61979;DHT22;47938;48.176;16.414;2023-01-15T09:56:28;6.20;96.40
61979;DHT22;47938;48.176;16.414;2023-01-15T09:58:56;6.00;98.90
61979;DHT22;47938;48.176;16.414;2023-01-15T10:01:26;6.10;99.90
61979;DHT22;47938;48.176;16.414;2023-01-15T10:04:04;6.10;99.30
61979;DHT22;47938;48.176;16.414;2023-01-15T10:09:56;6.10;97.20
61979;DHT22;47938;48.176;16.414;2023-01-15T10:12:26;6.20;98.70
61979;DHT22;47938;48.176;16.414;2023-01-15T10:14:58;6.30;98.70
61979;DHT22;47938;48.176;16.414;2023-01-15T10:17:28;6.30;98.50
61979;DHT22;47938;48.176;16.414;2023-01-15T10:19:56;6.20;98.40
61979;DHT22;47938;48.176;16.414;2023-01-15T10:22:47;6.20;99.50
61979;DHT22;47938;48.176;16.414;2023-01-15T10:25:20;6.30;97.70
61979;DHT22;47938;48.176;16.414;2023-01-15T10:27:50;6.30;97.60
61979;DHT22;47938;48.176;16.414;2023-01-15T10:32:50;6.10;97.80
61979;DHT22;47938;48.176;16.414;2023-01-15T10:38:05;6.00;99.40
61979;DHT22;47938;48.176;16.414;2023-01-15T10:46:10;6.20;96.50
61979;DHT22;47938;48.176;16.414;2023-01-15T10:51:24;6.10;97.50
61979;DHT22;47938;48.176;16.414;2023-01-15T10:54:07;6.10;95.80
61979;DHT22;47938;48.176;16.414;2023-01-15T10:56:40;6.20;94.50
61979;DHT22;47938;48.176;16.414;2023-01-15T10:59:27;6.20;94.80
61979;DHT22;47938;48.176;16.414;2023-01-15T11:01:58;6.20;94.50
61979;DHT22;47938;48.176;16.414;2023-01-15T11:04:30;6.10;94.20
61979;DHT22;47938;48.176;16.414;2023-01-15T11:06:55;6.20;94.10
61979;DHT22;47938;48.176;16.414;2023-01-15T11:09:24;6.20;94.60
61979;DHT22;47938;48.176;16.414;2023-01-15T11:11:53;6.20;94.40
61979;DHT22;47938;48.176;16.414;2023-01-15T11:14:41;6.20;96.30
61979;DHT22;47938;48.176;16.414;2023-01-15T11:17:12;6.30;96.00
61979;DHT22;47938;48.176;16.414;2023-01-15T11:19:40;6.40;92.70
61979;DHT22;47938;48.176;16.414;2023-01-15T11:22:08;6.30;92.20
61979;DHT22;47938;48.176;16.414;2023-01-15T11:24:50;6.20;92.90
61979;DHT22;47938;48.176;16.414;2023-01-15T11:27:20;6.20;92.40
61979;DHT22;47938;48.176;16.414;2023-01-15T11:29:54;6.20;94.40
61979;DHT22;47938;48.176;16.414;2023-01-15T11:32:28;6.20;93.80
61979;DHT22;47938;48.176;16.414;2023-01-15T11:35:20;6.20;94.10
61979;DHT22;47938;48.176;16.414;2023-01-15T11:37:46;6.20;95.00
61979;DHT22;47938;48.176;16.414;2023-01-15T11:40:21;6.20;95.30
61979;DHT22;47938;48.176;16.414;2023-01-15T11:42:48;6.20;96.50
61979;DHT22;47938;48.176;16.414;2023-01-15T11:45:19;6.20;95.10
61979;DHT22;47938;48.176;16.414;2023-01-15T11:47:52;6.20;95.30
61979;DHT22;47938;48.176;16.414;2023-01-15T11:50:19;6.10;96.90
61979;DHT22;47938;48.176;16.414;2023-01-15T11:52:47;6.10;98.50
61979;DHT22;47938;48.176;16.414;2023-01-15T11:55:19;6.10;99.30
61979;DHT22;47938;48.176;16.414;2023-01-15T11:57:46;6.20;98.40
61979;DHT22;47938;48.176;16.414;2023-01-15T12:00:33;6.10;99.90
61979;DHT22;47938;48.176;16.414;2023-01-15T12:03:14;6.30;99.30
61979;DHT22;47938;48.176;16.414;2023-01-15T12:05:46;6.30;98.00
61979;DHT22;47938;48.176;16.414;2023-01-15T12:14:44;6.30;99.90
61979;DHT22;47938;48.176;16.414;2023-01-15T12:22:52;6.40;99.90
61979;DHT22;47938;48.176;16.414;2023-01-15T12:28:27;6.40;99.90
61979;DHT22;47938;48.176;16.414;2023-01-15T12:31:22;6.40;99.90
61979;DHT22;47938;48.176;16.414;2023-01-15T12:33:57;6.40;99.90
61979;DHT22;47938;48.176;16.414;2023-01-15T12:36:37;6.40;99.90
61979;DHT22;47938;48.176;16.414;2023-01-15T12:39:21;6.30;99.90
61979;DHT22;47938;48.176;16.414;2023-01-15T12:41:56;6.30;99.90
61979;DHT22;47938;48.176;16.414;2023-01-15T12:47:18;6.30;99.90
61979;DHT22;47938;48.176;16.414;2023-01-15T12:49:52;6.30;99.90
61979;DHT22;47938;48.176;16.414;2023-01-15T12:52:24;6.30;99.90
61979;DHT22;47938;48.176;16.414;2023-01-15T12:55:08;6.30;99.90
61979;DHT22;47938;48.176;16.414;2023-01-15T12:57:36;6.30;99.90
61979;DHT22;47938;48.176;16.414;2023-01-15T13:02:48;6.20;99.90
61979;DHT22;47938;48.176;16.414;2023-01-15T13:05:30;6.20;99.90
61979;DHT22;47938;48.176;16.414;2023-01-15T13:08:38;6.20;99.90
61979;DHT22;47938;48.176;16.414;2023-01-15T13:11:10;6.30;99.90
61979;DHT22;47938;48.176;16.414;2023-01-15T13:13:39;6.30;99.90
61979;DHT22;47938;48.176;16.414;2023-01-15T13:16:23;6.40;99.90
61979;DHT22;47938;48.176;16.414;2023-01-15T13:21:44;6.40;99.90
61979;DHT22;47938;48.176;16.414;2023-01-15T13:27:05;6.50;99.90
61979;DHT22;47938;48.176;16.414;2023-01-15T13:32:28;6.30;99.90
61979;DHT22;47938;48.176;16.414;2023-01-15T13:35:06;6.40;99.90
61979;DHT22;47938;48.176;16.414;2023-01-15T13:37:47;6.40;99.90
61979;DHT22;47938;48.176;16.414;2023-01-15T13:42:49;6.40;99.90
61979;DHT22;47938;48.176;16.414;2023-01-15T13:47:46;6.30;99.90
61979;DHT22;47938;48.176;16.414;2023-01-15T13:50:18;6.30;99.90
61979;DHT22;47938;48.176;16.414;2023-01-15T13:52:47;6.30;99.90
61979;DHT22;47938;48.176;16.414;2023-01-15T13:55:29;6.30;99.90
61979;DHT22;47938;48.176;16.414;2023-01-15T13:57:56;6.30;99.90
61979;DHT22;47938;48.176;16.414;2023-01-15T14:00:33;6.30;99.90
61979;DHT22;47938;48.176;16.414;2023-01-15T14:03:02;6.20;99.90
61979;DHT22;47938;48.176;16.414;2023-01-15T14:05:31;6.20;99.90
61979;DHT22;47938;48.176;16.414;2023-01-15T14:07:59;6.20;99.90
61979;DHT22;47938;48.176;16.414;2023-01-15T14:16:00;6.20;99.90
61979;DHT22;47938;48.176;16.414;2023-01-15T14:24:07;6.20;99.90
61979;DHT22;47938;48.176;16.414;2023-01-15T14:26:59;6.20;99.90
61979;DHT22;47938;48.176;16.414;2023-01-15T14:32:40;6.10;99.90
61979;DHT22;47938;48.176;16.414;2023-01-15T14:35:14;6.20;99.90
61979;DHT22;47938;48.176;16.414;2023-01-15T14:37:54;6.10;99.90
61979;DHT22;47938;48.176;16.414;2023-01-15T14:40:31;6.20;99.90
61979;DHT22;47938;48.176;16.414;2023-01-15T14:43:01;6.20;99.90
61979;DHT22;47938;48.176;16.414;2023-01-15T14:45:37;6.10;99.90
61979;DHT22;47938;48.176;16.414;2023-01-15T14:48:50;6.10;99.90
61979;DHT22;47938;48.176;16.414;2023-01-15T14:50:50;6.10;99.90
61979;DHT22;47938;48.176;16.414;2023-01-15T14:53:27;6.10;99.90
61979;DHT22;47938;48.176;16.414;2023-01-15T14:56:06;6.20;99.90
61979;DHT22;47938;48.176;16.414;2023-01-15T15:03:53;6.30;99.90
61979;DHT22;47938;48.176;16.414;2023-01-15T15:06:20;6.30;99.90
61979;DHT22;47938;48.176;16.414;2023-01-15T15:08:49;6.30;99.90
61979;DHT22;47938;48.176;16.414;2023-01-15T15:11:24;6.30;99.90
61979;DHT22;47938;48.176;16.414;2023-01-15T15:13:55;6.20;99.90
61979;DHT22;47938;48.176;16.414;2023-01-15T15:16:25;6.20;99.90
61979;DHT22;47938;48.176;16.414;2023-01-15T15:21:44;6.10;99.90
61979;DHT22;47938;48.176;16.414;2023-01-15T15:24:30;6.10;99.90
61979;DHT22;47938;48.176;16.414;2023-01-15T15:26:56;6.10;99.90
61979;DHT22;47938;48.176;16.414;2023-01-15T15:29:32;6.10;99.90
61979;DHT22;47938;48.176;16.414;2023-01-15T15:31:58;6.00;99.90
61979;DHT22;47938;48.176;16.414;2023-01-15T15:34:32;6.10;99.90
61979;DHT22;47938;48.176;16.414;2023-01-15T15:37:11;6.10;99.90
61979;DHT22;47938;48.176;16.414;2023-01-15T15:42:36;6.20;99.90
61979;DHT22;47938;48.176;16.414;2023-01-15T15:45:14;6.20;99.90
61979;DHT22;47938;48.176;16.414;2023-01-15T15:47:41;6.20;99.90
61979;DHT22;47938;48.176;16.414;2023-01-15T15:50:35;6.20;99.90
61979;DHT22;47938;48.176;16.414;2023-01-15T15:53:01;6.20;99.90
61979;DHT22;47938;48.176;16.414;2023-01-15T15:55:37;6.20;99.90
61979;DHT22;47938;48.176;16.414;2023-01-15T15:58:04;6.20;99.90
61979;DHT22;47938;48.176;16.414;2023-01-15T16:00:34;6.20;99.90
61979;DHT22;47938;48.176;16.414;2023-01-15T16:03:04;6.30;99.90
61979;DHT22;47938;48.176;16.414;2023-01-15T16:05:30;6.40;99.90
61979;DHT22;47938;48.176;16.414;2023-01-15T16:08:19;6.40;99.90
61979;DHT22;47938;48.176;16.414;2023-01-15T16:10:48;6.40;99.90
61979;DHT22;47938;48.176;16.414;2023-01-15T16:13:37;6.50;99.90
61979;DHT22;47938;48.176;16.414;2023-01-15T16:16:04;6.50;99.90
61979;DHT22;47938;48.176;16.414;2023-01-15T16:18:51;6.50;99.90
61979;DHT22;47938;48.176;16.414;2023-01-15T16:21:36;6.60;99.90
61979;DHT22;47938;48.176;16.414;2023-01-15T16:24:17;6.60;99.90
61979;DHT22;47938;48.176;16.414;2023-01-15T16:26:51;6.70;99.90
61979;DHT22;47938;48.176;16.414;2023-01-15T16:29:21;6.70;99.90
61979;DHT22;47938;48.176;16.414;2023-01-15T16:31:49;6.90;99.90
61979;DHT22;47938;48.176;16.414;2023-01-15T16:34:21;6.90;99.90
61979;DHT22;47938;48.176;16.414;2023-01-15T16:36:49;7.00;99.90
61979;DHT22;47938;48.176;16.414;2023-01-15T16:41:47;7.10;99.90
61979;DHT22;47938;48.176;16.414;2023-01-15T16:44:50;7.10;99.90
61979;DHT22;47938;48.176;16.414;2023-01-15T16:47:34;7.20;99.90
61979;DHT22;47938;48.176;16.414;2023-01-15T16:52:52;7.30;99.90
61979;DHT22;47938;48.176;16.414;2023-01-15T16:55:40;7.30;99.90
61979;DHT22;47938;48.176;16.414;2023-01-15T16:58:21;7.30;99.90
61979;DHT22;47938;48.176;16.414;2023-01-15T17:00:55;7.30;99.90
61979;DHT22;47938;48.176;16.414;2023-01-15T17:03:23;7.30;99.90
61979;DHT22;47938;48.176;16.414;2023-01-15T17:05:57;7.30;99.90
61979;DHT22;47938;48.176;16.414;2023-01-15T17:10:58;7.40;99.90
61979;DHT22;47938;48.176;16.414;2023-01-15T17:13:35;7.40;99.90
61979;DHT22;47938;48.176;16.414;2023-01-15T17:16:21;7.40;99.90
61979;DHT22;47938;48.176;16.414;2023-01-15T17:18:49;7.50;99.90
61979;DHT22;47938;48.176;16.414;2023-01-15T17:21:20;7.50;99.90
61979;DHT22;47938;48.176;16.414;2023-01-15T17:23:46;7.40;99.90
61979;DHT22;47938;48.176;16.414;2023-01-15T17:26:23;7.50;99.90
61979;DHT22;47938;48.176;16.414;2023-01-15T17:28:51;7.50;99.80
61979;DHT22;47938;48.176;16.414;2023-01-15T17:33:52;7.50;99.30
61979;DHT22;47938;48.176;16.414;2023-01-15T17:36:18;7.50;98.70
61979;DHT22;47938;48.176;16.414;2023-01-15T17:38:44;7.50;97.50
61979;DHT22;47938;48.176;16.414;2023-01-15T17:41:12;7.50;96.10
61979;DHT22;47938;48.176;16.414;2023-01-15T17:43:38;7.50;95.50
61979;DHT22;47938;48.176;16.414;2023-01-15T17:46:05;7.50;93.80
61979;DHT22;47938;48.176;16.414;2023-01-15T17:48:31;7.50;94.50